岡山グライダークラブ活動状況掲示板あなたは無料カウンター人目の訪問者です

岡山グライダークラブ
岡山市浦安南町639-1 岡南飛行場
 使用機:シャイベ式 SF25C型 ファルケ   JA2330
      ヴァレンティン式17E型 タイフーン  JA2342
 練習日:毎日曜日  クラブルーム:電話 086-265-1810
この掲示板は岡山グライダークラブの活動状況をお知らせする掲示板です。
!!!この掲示板は投稿規制をしています。!!!
クラブ関連各種情報は 岡山グライダークラブクラブルーム      を       .
  ブリーフイング情報は  岡山グライダークラブブリーフィングルーム  をご覧下さい。 .
※写真はクリックすると拡大して見ることが出来ます。
岡南飛行場へのアクセス等は 岡南飛行場管理事務所 をご覧ください。
クラブの ホームページ ができました。

 
8月25日
by OGC at 2019/8/25(日) 20:26:40 No.20190825202313  削除コメント
1024 x 768 x 89,581バイト
No.1

08月25日
本日の参加者
  会員      14名
  その他      1名


@本日の様子




METAR
RJBK 250000Z 26008KT 20KM FEW020CU SCT/// 26/20 Q1013 A2992
RJOB 250000Z 25003KT 190V300 9999 FEW010 SCT050 BKN/// 24/20 Q1013
RJOT 250000Z 28008KT 9999 FEW020 SCT/// 25/21 Q1013
RJOA 250000Z 24004KT 210V290 9999 FEW008 SCT010 BKN/// 22/18 Q1014
TAF
RJOB  242306Z 2500/2606 25005KT 9999 FEW015 SCT030
     BECMG 2509/2511 03004KT
RJOT 242305Z 2500/2606 28009KT 9999 FEW030
     BECMG 2521/2600 06008KT
RJOA 242307Z 2500/2606 20006KT 9999 FEW020 SCT040
     BECMG 2510/2512 06004KT

お盆を過ぎると暑さも少し和らいできました。
先週とうって変わって、本日は教官が5名。これぐらいいた方が運用が楽ですね。
一方、タイフーンは順調に整備が完了し、来週には耐空検査を受ける予定です。

解散    17:30

1番機  10:30離陸 撤収機  17:00着陸 

SF25C JA2330 ファルケ     09Flt.3h45min  
17E   JA2342 タイフーン    00Flt.0h00min  
合計                    09Flt.3h45min

    << 戻る || ホームページ || 最新の掲示板へ